Roulette, Pennsylvania
Current Conditions -  °F | °C
As of 9:56 AM on Wednesday 22 Oct 2014 (Local Time) from KELZ Reporting Station
Moderate Fog Moderate Fog  
Wind Chill: 37°   Ceiling: 100
Heat Index: 42°   Visibility: 0.25mi
Dew Point: 40°   Wind: 9mph
Humidity: 92%   Direction: 360°N
Pressure: 30.14"   Gusts: NA
Location:  41.78°N, 78.15°W
Report Text: KELZ 221356Z AUTO 36008KT 340V040 1/4SM FG VV001 06/04 A3014 RMK AO2 SLP216 T00560044
Loading
Personal Weather Stations






























Interactive Weather Map
Tropical Storm Tracking
New forecast layout! Learn more

10-Day Weather Forecast

Advertisements
Track Severe Weather on mobile